Oasis — WDG3806 — position and weather

sailwx.info

Track history (hours):
 
Tides and Currents Weather Stations Pressure Air Temp Water Temp Dewpoint Dewpoint Depression Visibility Wind Speed Wind Dir Waves Ship Positions

Oasis

Owner: Rome, Clifford D, Boston, MA. More information available from US FCC via Universal Licensing System and Coast Guard Vessel Documentation Center.

Last reported at 2018-Feb-22 17:00 UTC. Time now 2018-Feb-24 08:42 UTC.
Position N 32°48' W 117°18'.

Length 22 m.

Type: Pleasure craft. MMSI: 367529840.

Date/timePositionNaut miles runAvg speedWind from/ knotsBaromVisibWave heightAir tempDewpointWater temp
2018-Feb-22 17:00N 32°48' W 117°18'5 9.5
2018-Feb-22 16:30N 32°53' W 117°19'5 9.4
2018-Feb-22 16:00N 32°57' W 117°20'5 9.3
2018-Feb-22 15:30N 33°02' W 117°21'5 9.3
2018-Feb-22 15:00N 33°07' W 117°23'5 9.5
2018-Feb-22 14:30N 33°11' W 117°24'1 0.1
2018-Feb-21 22:23N 33°13' W 117°24'2 5.7
2018-Feb-21 22:00N 33°13' W 117°26'5 9.4
2018-Feb-21 21:30N 33°16' W 117°31'5 9.5
2018-Feb-21 21:00N 33°18' W 117°36'5 9.6
2018-Feb-21 20:30N 33°21' W 117°41'5 9.7
2018-Feb-21 20:00N 33°24' W 117°45'5 9.6
2018-Feb-21 19:30N 33°26' W 117°50'18 9.6
2018-Feb-21 17:38N 33°36' W 118°08'2 9.5
2018-Feb-21 17:28N 33°37' W 118°10'6 9.8
2018-Feb-21 16:53N 33°40' W 118°16'  
Track history (hours):
 
Tides and Currents Weather Stations Pressure Air Temp Water Temp Dewpoint Dewpoint Depression Visibility Wind Speed Wind Dir Waves Ship Positions

Oasis

Owner: Rome, Clifford D, Boston, MA. More information available from US FCC via Universal Licensing System and Coast Guard Vessel Documentation Center.

Last reported at 2018-Feb-22 17:00 UTC. Time now 2018-Feb-24 08:42 UTC.
Position N 32°48' W 117°18'.

Length 22 m.

Type: Pleasure craft. MMSI: 367529840.

Date/timePositionNaut miles runAvg speedWind from/ knotsBaromVisibWave heightAir tempDewpointWater temp
2018-Feb-22 17:00N 32°48' W 117°18'5 9.5
2018-Feb-22 16:30N 32°53' W 117°19'5 9.4
2018-Feb-22 16:00N 32°57' W 117°20'5 9.3
2018-Feb-22 15:30N 33°02' W 117°21'5 9.3
2018-Feb-22 15:00N 33°07' W 117°23'5 9.5
2018-Feb-22 14:30N 33°11' W 117°24'1 0.1
2018-Feb-21 22:23N 33°13' W 117°24'2 5.7
2018-Feb-21 22:00N 33°13' W 117°26'5 9.4
2018-Feb-21 21:30N 33°16' W 117°31'5 9.5
2018-Feb-21 21:00N 33°18' W 117°36'5 9.6
2018-Feb-21 20:30N 33°21' W 117°41'5 9.7
2018-Feb-21 20:00N 33°24' W 117°45'5 9.6
2018-Feb-21 19:30N 33°26' W 117°50'18 9.6
2018-Feb-21 17:38N 33°36' W 118°08'2 9.5
2018-Feb-21 17:28N 33°37' W 118°10'6 9.8
2018-Feb-21 16:53N 33°40' W 118°16'  

Dump ship's entire track history